createdAt,value
2022-08-26T00:02:07.251Z,99535.78
2022-08-26T00:04:36.880Z,99518.81
2022-08-26T00:07:05.396Z,99537.50
2022-08-26T00:12:03.327Z,99490.13
2022-08-26T00:14:31.712Z,99505.00
2022-08-26T00:17:00.165Z,99541.00
2022-08-26T00:19:28.127Z,99545.78
2022-08-26T00:21:57.702Z,99547.72
2022-08-26T00:24:25.602Z,99560.44
2022-08-26T00:26:53.806Z,99549.91
2022-08-26T00:29:21.865Z,99504.13
2022-08-26T00:31:50.598Z,99542.09
2022-08-26T00:34:19.430Z,99544.53
2022-08-26T00:36:47.812Z,99556.13
2022-08-26T00:39:21.656Z,99555.53
2022-08-26T00:41:50.545Z,99558.56
2022-08-26T00:44:18.467Z,99557.94
2022-08-26T00:46:47.847Z,99562.56
2022-08-26T00:49:21.813Z,99558.38
2022-08-26T00:51:52.120Z,99564.00
2022-08-26T00:54:22.912Z,99559.97
2022-08-26T00:56:53.860Z,99561.03
2022-08-26T00:59:22.778Z,99509.22
2022-08-26T01:01:50.721Z,99562.94
2022-08-26T01:04:20.778Z,99556.09
2022-08-26T01:06:49.440Z,99546.44
2022-08-26T01:09:17.724Z,99549.00
2022-08-26T01:11:47.135Z,99565.47
2022-08-26T01:14:15.385Z,99566.56
2022-08-26T01:16:44.199Z,99556.81
2022-08-26T01:19:17.084Z,99538.28
2022-08-26T01:21:46.531Z,99577.75
2022-08-26T01:24:15.937Z,99574.31
2022-08-26T01:26:44.731Z,99553.13
2022-08-26T01:29:17.596Z,99534.31
2022-08-26T01:31:48.511Z,99568.06
2022-08-26T01:34:18.131Z,99562.72
2022-08-26T01:36:51.191Z,99531.53
2022-08-26T01:39:21.152Z,99575.66
2022-08-26T01:41:51.796Z,99572.97
2022-08-26T01:44:23.525Z,99557.53
2022-08-26T01:46:51.564Z,99595.00
2022-08-26T01:49:19.503Z,99587.59
2022-08-26T01:51:47.440Z,99579.94
2022-08-26T01:54:15.556Z,99590.50
2022-08-26T01:56:44.796Z,99598.56
2022-08-26T01:59:13.569Z,99564.28
2022-08-26T02:01:41.678Z,99581.09
2022-08-26T02:04:15.811Z,99567.44
2022-08-26T02:06:43.860Z,99576.63
2022-08-26T02:09:11.939Z,99597.69
2022-08-26T02:11:39.947Z,99604.88
2022-08-26T02:14:13.414Z,99611.19
2022-08-26T02:16:42.882Z,99551.16
2022-08-26T02:19:17.206Z,99610.69
2022-08-26T02:21:45.948Z,99611.41
2022-08-26T02:24:21.808Z,99604.44
2022-08-26T02:26:49.976Z,99622.38
2022-08-26T02:29:22.137Z,99613.69
2022-08-26T02:31:50.171Z,99593.16
2022-08-26T02:34:21.220Z,99606.09
2022-08-26T02:36:49.456Z,99620.22
2022-08-26T02:39:22.334Z,99619.50
2022-08-26T02:41:51.593Z,99616.19
2022-08-26T02:44:21.052Z,99611.16
2022-08-26T02:46:49.316Z,99620.16
2022-08-26T02:49:17.592Z,99573.94
2022-08-26T02:51:45.638Z,99582.50
2022-08-26T02:54:13.973Z,99617.06
2022-08-26T02:56:42.053Z,99608.22
2022-08-26T02:59:12.598Z,99627.28
2022-08-26T03:01:42.570Z,99618.59
2022-08-26T03:04:11.625Z,99617.97
2022-08-26T03:06:40.703Z,99575.34
2022-08-26T03:09:09.483Z,99602.63
2022-08-26T03:11:37.906Z,99581.00
2022-08-26T03:14:06.096Z,99609.91
2022-08-26T03:16:34.670Z,99583.03
2022-08-26T03:19:04.516Z,99604.88
2022-08-26T03:21:33.806Z,99601.66
2022-08-26T03:24:04.512Z,99599.19
2022-08-26T03:26:32.581Z,99593.84
2022-08-26T03:29:18.253Z,99614.63
2022-08-26T03:31:47.083Z,99609.59
2022-08-26T03:34:17.237Z,99610.78
2022-08-26T03:36:46.039Z,99574.25
2022-08-26T03:39:14.314Z,99568.03
2022-08-26T03:41:45.054Z,99582.69
2022-08-26T03:44:13.106Z,99601.34
2022-08-26T03:46:41.328Z,99617.94
2022-08-26T03:49:11.979Z,99604.34
2022-08-26T03:51:41.412Z,99617.50
2022-08-26T03:54:10.014Z,99627.47
2022-08-26T03:56:38.584Z,99629.38
2022-08-26T03:59:08.123Z,99628.63
2022-08-26T04:01:36.207Z,99630.44
2022-08-26T04:04:04.976Z,99627.88
2022-08-26T04:06:36.002Z,99628.94
2022-08-26T04:09:07.159Z,99630.00
2022-08-26T04:11:37.747Z,99634.09
2022-08-26T04:14:07.813Z,99590.13
2022-08-26T04:16:35.897Z,99629.06
2022-08-26T04:19:04.971Z,99620.59
2022-08-26T04:21:32.883Z,99622.75
2022-08-26T04:24:03.648Z,99640.53
2022-08-26T04:26:37.049Z,99625.13
2022-08-26T04:29:09.316Z,99638.59
2022-08-26T04:31:40.936Z,99631.75
2022-08-26T04:34:08.818Z,99637.97
2022-08-26T04:36:41.010Z,99612.25
2022-08-26T04:39:12.089Z,99611.63
2022-08-26T04:41:41.908Z,99649.66
2022-08-26T04:44:09.928Z,99650.28
2022-08-26T04:46:39.905Z,99651.03
2022-08-26T04:49:12.020Z,99663.38
2022-08-26T04:51:41.009Z,99659.53
2022-08-26T04:54:08.919Z,99654.91
2022-08-26T04:56:39.777Z,99646.75
2022-08-26T04:59:16.716Z,99658.56
2022-08-26T05:01:45.247Z,99660.16
2022-08-26T05:04:13.361Z,99660.69
2022-08-26T05:06:44.345Z,99621.91
2022-08-26T05:09:12.271Z,99656.84
2022-08-26T05:11:43.038Z,99657.47
2022-08-26T05:14:12.536Z,99645.06
2022-08-26T05:16:40.599Z,99645.06
2022-08-26T05:19:08.958Z,99648.47
2022-08-26T05:21:36.984Z,99621.47
2022-08-26T05:24:07.058Z,99657.25
2022-08-26T05:26:36.790Z,99657.25
2022-08-26T05:29:05.470Z,99666.03
2022-08-26T05:31:36.297Z,99662.63
2022-08-26T05:34:08.441Z,99642.06
2022-08-26T05:36:36.964Z,99650.19
2022-08-26T05:39:06.102Z,99664.53
2022-08-26T05:41:36.422Z,99641.19
2022-08-26T05:44:05.890Z,99670.31
2022-08-26T05:46:35.582Z,99675.56
2022-08-26T05:49:04.298Z,99657.25
2022-08-26T05:51:33.797Z,99674.13
2022-08-26T05:54:02.374Z,99673.06
2022-08-26T05:56:39.668Z,99660.22
2022-08-26T05:59:14.103Z,99650.81
2022-08-26T06:01:44.280Z,99675.50
2022-08-26T06:04:12.710Z,99676.28
2022-08-26T06:06:42.631Z,99680.53
2022-08-26T06:11:44.865Z,99682.78
2022-08-26T06:14:13.337Z,99684.44
2022-08-26T06:16:45.164Z,99676.91
2022-08-26T06:19:14.261Z,99689.31
2022-08-26T06:21:43.049Z,99676.88
2022-08-26T06:24:30.321Z,99680.44
2022-08-26T06:27:01.655Z,99678.59
2022-08-26T06:29:30.996Z,99691.34
2022-08-26T06:32:00.899Z,99682.44
2022-08-26T06:34:30.649Z,99654.69
2022-08-26T06:36:59.707Z,99642.69
2022-08-26T06:39:31.115Z,99693.63
2022-08-26T06:41:59.297Z,99688.84
2022-08-26T06:44:27.304Z,99695.13
2022-08-26T06:46:55.564Z,99680.34
2022-08-26T06:49:26.537Z,99698.59
2022-08-26T06:51:55.326Z,99688.94
2022-08-26T06:54:23.449Z,99677.50
2022-08-26T06:56:51.317Z,99693.09
2022-08-26T06:59:21.913Z,99698.22
2022-08-26T07:01:50.017Z,99688.00
2022-08-26T07:04:20.167Z,99600.59
2022-08-26T07:06:52.808Z,99696.09
2022-08-26T07:09:21.707Z,99698.19
2022-08-26T07:11:49.806Z,99666.50
2022-08-26T07:14:21.159Z,99697.38
2022-08-26T07:16:49.725Z,99702.41
2022-08-26T07:19:30.463Z,99704.94
2022-08-26T07:22:02.279Z,99708.25
2022-08-26T07:24:32.353Z,99710.34
2022-08-26T07:27:01.692Z,99717.31
2022-08-26T07:29:34.161Z,99716.97
2022-08-26T07:32:02.242Z,99716.72
2022-08-26T07:34:32.163Z,99713.84
2022-08-26T07:37:02.506Z,99715.66
2022-08-26T07:39:31.628Z,99721.88
2022-08-26T07:42:01.619Z,99728.00
2022-08-26T07:44:35.407Z,99712.59
2022-08-26T07:47:03.749Z,99733.25
2022-08-26T07:49:52.735Z,99730.44
2022-08-26T07:52:26.171Z,99731.19
2022-08-26T07:54:55.350Z,99713.69
2022-08-26T07:57:24.249Z,99728.38
2022-08-26T07:59:54.064Z,99690.06
2022-08-26T08:02:23.558Z,99734.97
2022-08-26T08:04:51.894Z,99707.13
2022-08-26T08:07:25.734Z,99742.44
2022-08-26T08:10:11.763Z,99701.59
2022-08-26T08:12:40.948Z,99690.63
2022-08-26T08:15:09.972Z,99744.75
2022-08-26T08:17:37.896Z,99743.66
2022-08-26T08:20:07.788Z,99749.91
2022-08-26T08:22:36.996Z,99736.22
2022-08-26T08:25:06.341Z,99745.72
2022-08-26T08:27:36.470Z,99747.31
2022-08-26T08:30:04.593Z,99746.34
2022-08-26T08:32:32.793Z,99750.63
2022-08-26T08:35:00.683Z,99754.91
2022-08-26T08:37:28.530Z,99746.13
2022-08-26T08:39:57.989Z,99756.38
2022-08-26T08:42:35.391Z,99746.38
2022-08-26T08:45:13.548Z,99754.84
2022-08-26T08:47:43.180Z,99753.47
2022-08-26T08:50:17.114Z,99753.22
2022-08-26T08:52:45.972Z,99772.78
2022-08-26T08:55:18.042Z,99719.09
2022-08-26T08:57:53.768Z,99759.31
2022-08-26T09:00:30.614Z,99755.81
2022-08-26T09:02:59.788Z,99759.22
2022-08-26T09:05:31.790Z,99718.13
2022-08-26T09:08:04.812Z,99713.88
2022-08-26T09:10:37.490Z,99755.81
2022-08-26T09:13:08.369Z,99763.25
2022-08-26T09:15:46.580Z,99760.19
2022-08-26T09:18:22.733Z,99757.97
2022-08-26T09:20:53.795Z,99762.59
2022-08-26T09:23:21.613Z,99759.28
2022-08-26T09:25:52.167Z,99765.66
2022-08-26T09:28:21.392Z,99767.59
2022-08-26T09:31:02.067Z,99762.81
2022-08-26T09:33:33.722Z,99756.78
2022-08-26T09:36:16.262Z,99760.06
2022-08-26T09:38:44.063Z,99765.47
2022-08-26T09:41:24.696Z,99758.31
2022-08-26T09:44:17.286Z,99759.13
2022-08-26T09:46:47.448Z,99764.63
2022-08-26T09:49:29.910Z,99741.06
2022-08-26T09:52:09.218Z,99760.84
2022-08-26T09:54:37.992Z,99763.38
2022-08-26T09:57:20.958Z,99761.81
2022-08-26T09:59:50.979Z,99751.09
2022-08-26T10:02:47.668Z,99754.31
2022-08-26T10:05:18.419Z,99759.69
2022-08-26T10:07:49.132Z,99720.69
2022-08-26T10:10:21.271Z,99754.31
2022-08-26T10:12:58.833Z,99735.09
2022-08-26T10:15:27.261Z,99706.31
2022-08-26T10:17:59.995Z,99740.38
2022-08-26T10:20:29.108Z,99743.19
2022-08-26T10:22:59.648Z,99723.31
2022-08-26T10:25:29.744Z,99749.59
2022-08-26T10:28:04.662Z,99751.22
2022-08-26T10:30:34.644Z,99711.84
2022-08-26T10:33:04.883Z,99727.38
2022-08-26T10:35:32.712Z,99748.75
2022-08-26T10:38:03.956Z,99743.69
2022-08-26T10:40:36.629Z,99745.06
2022-08-26T10:43:11.503Z,99736.94
2022-08-26T10:45:41.088Z,99736.91
2022-08-26T10:48:11.113Z,99731.91
2022-08-26T10:50:40.009Z,99741.63
2022-08-26T10:53:11.922Z,99713.53
2022-08-26T10:55:42.030Z,99742.97
2022-08-26T10:58:27.908Z,99747.59
2022-08-26T11:01:17.650Z,99746.94
2022-08-26T11:03:54.848Z,99758.13
2022-08-26T11:06:26.891Z,99752.97
2022-08-26T11:08:56.778Z,99751.66
2022-08-26T11:11:48.042Z,99755.69
2022-08-26T11:14:45.918Z,99757.66
2022-08-26T11:17:55.611Z,99757.38
2022-08-26T11:20:33.328Z,99755.09
2022-08-26T11:23:34.484Z,99754.13
2022-08-26T11:26:35.462Z,99741.16
2022-08-26T11:29:03.262Z,99756.81
2022-08-26T11:31:56.866Z,99742.56
2022-08-26T11:34:52.650Z,99742.88
2022-08-26T11:39:56.892Z,99744.81
2022-08-26T11:42:33.909Z,99709.28
2022-08-26T11:45:05.641Z,99727.69
2022-08-26T11:47:35.229Z,99745.59
2022-08-26T11:50:14.205Z,99751.47
2022-08-26T11:52:42.258Z,99745.78
2022-08-26T11:55:12.274Z,99725.16
2022-08-26T11:57:43.332Z,99737.31
2022-08-26T12:00:15.820Z,99717.66
2022-08-26T12:02:50.209Z,99738.22
2022-08-26T12:05:23.365Z,99735.59
2022-08-26T12:07:53.039Z,99738.53
2022-08-26T12:12:57.908Z,99733.22
2022-08-26T12:15:26.501Z,99728.91
2022-08-26T12:17:59.337Z,99703.63
2022-08-26T12:20:46.071Z,99740.47
2022-08-26T12:23:28.067Z,99722.50
2022-08-26T12:26:04.543Z,99725.75
2022-08-26T12:28:32.747Z,99747.91
2022-08-26T12:31:02.118Z,99748.72
2022-08-26T12:33:31.350Z,99743.81
2022-08-26T12:36:01.971Z,99732.00
2022-08-26T12:38:29.818Z,99745.59
2022-08-26T12:40:58.014Z,99734.38
2022-08-26T12:43:42.241Z,99739.78
2022-08-26T12:46:11.420Z,99744.41
2022-08-26T12:48:42.617Z,99755.19
2022-08-26T12:51:17.357Z,99746.41
2022-08-26T12:53:45.207Z,99748.69
2022-08-26T12:56:22.109Z,99744.19
2022-08-26T12:59:02.609Z,99735.09
2022-08-26T13:01:37.922Z,99739.22
2022-08-26T13:04:07.682Z,99737.13
2022-08-26T13:06:35.916Z,99716.03
2022-08-26T13:09:06.296Z,99739.22
2022-08-26T13:11:35.387Z,99714.22
2022-08-26T13:14:07.192Z,99729.19
2022-08-26T13:16:35.463Z,99726.72
2022-08-26T13:19:04.967Z,99727.41
2022-08-26T13:21:37.458Z,99688.78
2022-08-26T13:24:06.872Z,99726.03
2022-08-26T13:26:36.796Z,99726.44
2022-08-26T13:29:09.580Z,99705.97
2022-08-26T13:31:39.431Z,99728.97
2022-08-26T13:34:07.466Z,99728.75
2022-08-26T13:36:37.059Z,99733.56
2022-08-26T13:39:05.199Z,99679.00
2022-08-26T13:41:33.230Z,99720.50
2022-08-26T13:44:01.159Z,99733.56
2022-08-26T13:46:29.516Z,99730.72
2022-08-26T13:48:57.771Z,99732.44
2022-08-26T13:51:26.276Z,99704.72
2022-08-26T13:53:55.559Z,99725.34
2022-08-26T13:56:23.520Z,99730.44
2022-08-26T13:58:51.437Z,99694.53
2022-08-26T14:01:19.279Z,99728.34
2022-08-26T14:03:47.452Z,99727.63
2022-08-26T14:06:15.514Z,99727.25
2022-08-26T14:08:43.700Z,99680.28
2022-08-26T14:11:12.994Z,99723.97
2022-08-26T14:13:40.835Z,99726.06
2022-08-26T14:16:10.201Z,99716.34
2022-08-26T14:18:41.819Z,99725.50
2022-08-26T14:21:10.494Z,99716.75
2022-08-26T14:23:38.424Z,99715.38
2022-08-26T14:26:08.450Z,99708.41
2022-08-26T14:28:38.793Z,99702.81
2022-08-26T14:31:06.991Z,99729.22
2022-08-26T14:33:35.755Z,99699.84
2022-08-26T14:36:17.809Z,99718.59
2022-08-26T14:38:45.871Z,99635.19
2022-08-26T14:41:14.015Z,99723.69
2022-08-26T14:43:45.692Z,99724.03
2022-08-26T14:46:14.699Z,99714.34
2022-08-26T14:48:42.794Z,99686.00
2022-08-26T14:51:10.656Z,99694.28
2022-08-26T14:53:55.800Z,99718.94
2022-08-26T14:56:23.738Z,99716.72
2022-08-26T14:58:53.015Z,99721.13
2022-08-26T15:01:21.033Z,99673.13
2022-08-26T15:03:48.917Z,99715.34
2022-08-26T15:06:16.859Z,99711.22
2022-08-26T15:08:45.140Z,99699.22
2022-08-26T15:11:13.115Z,99714.50
2022-08-26T15:13:41.000Z,99684.09
2022-08-26T15:16:10.676Z,99647.22
2022-08-26T15:18:39.039Z,99717.53
2022-08-26T15:21:08.332Z,99680.19
2022-08-26T15:23:39.379Z,99708.75
2022-08-26T15:26:09.251Z,99700.19
2022-08-26T15:28:37.132Z,99699.84
2022-08-26T15:31:06.627Z,99694.53
2022-08-26T15:33:36.356Z,99692.00
2022-08-26T15:36:05.323Z,99702.50
2022-08-26T15:38:36.344Z,99669.75
2022-08-26T15:41:04.474Z,99690.75
2022-08-26T15:43:32.796Z,99700.69
2022-08-26T15:46:01.167Z,99696.41
2022-08-26T15:48:29.155Z,99650.25
2022-08-26T15:51:00.145Z,99702.06
2022-08-26T15:53:28.489Z,99658.44
2022-08-26T15:55:57.599Z,99708.19
2022-08-26T15:58:26.965Z,99698.19
2022-08-26T16:00:55.316Z,99701.38
2022-08-26T16:03:23.391Z,99687.56
2022-08-26T16:05:51.755Z,99658.88
2022-08-26T16:08:22.527Z,99691.25
2022-08-26T16:10:51.359Z,99693.69
2022-08-26T16:13:19.801Z,99680.59
2022-08-26T16:15:50.032Z,99663.03
2022-08-26T16:18:20.283Z,99702.63
2022-08-26T16:21:12.320Z,99658.34
2022-08-26T16:23:44.923Z,99706.63
2022-08-26T16:26:14.304Z,99687.34
2022-08-26T16:28:42.241Z,99713.97
2022-08-26T16:31:11.743Z,99713.50
2022-08-26T16:33:40.634Z,99711.19
2022-08-26T16:36:09.283Z,99687.94
2022-08-26T16:38:37.614Z,99716.78
2022-08-26T16:41:07.280Z,99708.47
2022-08-26T16:43:35.264Z,99714.09
2022-08-26T16:46:03.412Z,99725.31
2022-08-26T16:48:31.300Z,99715.81
2022-08-26T16:50:59.400Z,99694.97
2022-08-26T16:53:27.330Z,99721.75
2022-08-26T16:55:55.396Z,99723.09
2022-08-26T16:58:24.639Z,99733.31
2022-08-26T17:00:52.512Z,99736.22
2022-08-26T17:03:20.348Z,99734.75
2022-08-26T17:05:48.339Z,99736.97
2022-08-26T17:08:24.323Z,99741.72
2022-08-26T17:10:59.560Z,99742.91
2022-08-26T17:13:35.516Z,99736.06
2022-08-26T17:16:05.043Z,99744.22
2022-08-26T17:18:33.635Z,99742.63
2022-08-26T17:21:02.155Z,99750.03
2022-08-26T17:23:31.208Z,99746.97
2022-08-26T17:25:59.361Z,99751.13
2022-08-26T17:28:28.661Z,99754.25
2022-08-26T17:30:57.284Z,99739.59
2022-08-26T17:33:25.597Z,99759.84
2022-08-26T17:35:54.271Z,99743.88
2022-08-26T17:38:22.194Z,99677.31
2022-08-26T17:40:53.115Z,99724.66
2022-08-26T17:43:21.001Z,99749.59
2022-08-26T17:45:50.833Z,99755.59
2022-08-26T17:48:18.783Z,99753.97
2022-08-26T17:50:49.361Z,99762.16
2022-08-26T17:53:18.811Z,99753.69
2022-08-26T17:55:47.389Z,99752.09
2022-08-26T17:58:15.993Z,99755.63
2022-08-26T18:00:44.759Z,99749.00
2022-08-26T18:03:13.990Z,99754.94
2022-08-26T18:05:43.304Z,99708.84
2022-08-26T18:08:11.334Z,99720.31
2022-08-26T18:13:14.805Z,99758.59
2022-08-26T18:15:43.009Z,99757.88
2022-08-26T18:18:10.880Z,99754.22
2022-08-26T18:20:40.566Z,99749.91
2022-08-26T18:23:08.637Z,99762.34
2022-08-26T18:25:39.818Z,99760.78
2022-08-26T18:28:07.779Z,99762.91
2022-08-26T18:30:35.681Z,99748.53
2022-08-26T18:33:03.552Z,99763.31
2022-08-26T18:35:31.511Z,99763.31
2022-08-26T18:38:11.572Z,99765.25
2022-08-26T18:40:39.940Z,99758.41
2022-08-26T18:43:07.844Z,99765.56
2022-08-26T18:45:35.865Z,99761.19
2022-08-26T18:48:04.250Z,99765.91
2022-08-26T18:50:32.249Z,99770.28
2022-08-26T18:53:02.458Z,99772.97
2022-08-26T18:55:30.310Z,99766.22
2022-08-26T18:57:58.168Z,99776.09
2022-08-26T19:00:26.060Z,99773.84
2022-08-26T19:02:55.959Z,99780.91
2022-08-26T19:05:26.067Z,99780.28
2022-08-26T19:07:53.989Z,99775.88
2022-08-26T19:10:24.613Z,99760.34
2022-08-26T19:12:53.714Z,99773.31
2022-08-26T19:15:23.322Z,99770.75
2022-08-26T19:17:51.279Z,99764.84
2022-08-26T19:20:19.451Z,99779.63
2022-08-26T19:22:47.326Z,99777.06
2022-08-26T19:25:15.643Z,99774.50
2022-08-26T19:27:44.830Z,99774.50
2022-08-26T19:30:12.879Z,99788.84
2022-08-26T19:32:40.830Z,99791.53
2022-08-26T19:35:09.834Z,99783.50
2022-08-26T19:37:38.265Z,99786.19
2022-08-26T19:40:07.817Z,99787.16
2022-08-26T19:42:35.730Z,99771.72
2022-08-26T19:45:24.696Z,99785.63
2022-08-26T19:47:53.547Z,99785.63
2022-08-26T19:50:21.664Z,99785.84
2022-08-26T19:52:50.973Z,99781.56
2022-08-26T19:55:19.341Z,99791.44
2022-08-26T19:57:47.317Z,99794.09
2022-08-26T20:00:18.175Z,99788.94
2022-08-26T20:02:46.042Z,99787.22
2022-08-26T20:05:15.345Z,99789.06
2022-08-26T20:07:43.200Z,99790.03
2022-08-26T20:10:12.448Z,99790.34
2022-08-26T20:12:41.562Z,99797.72
2022-08-26T20:15:10.609Z,99794.47
2022-08-26T20:17:39.939Z,99796.47
2022-08-26T20:20:31.616Z,99778.97
2022-08-26T20:23:03.613Z,99803.34
2022-08-26T20:25:33.622Z,99795.25
2022-08-26T20:28:01.912Z,99809.09
2022-08-26T20:30:29.870Z,99814.56
2022-08-26T20:32:59.097Z,99800.53
2022-08-26T20:35:28.114Z,99809.63
2022-08-26T20:37:56.096Z,99786.34
2022-08-26T20:40:24.183Z,99805.53
2022-08-26T20:42:52.091Z,99801.88
2022-08-26T20:45:20.297Z,99806.50
2022-08-26T20:47:48.138Z,99799.59
2022-08-26T20:50:17.482Z,99805.19
2022-08-26T20:52:46.469Z,99806.13
2022-08-26T20:55:14.489Z,99809.88
2022-08-26T20:57:43.306Z,99424.84
2022-08-26T21:00:13.380Z,99806.00
2022-08-26T21:02:43.157Z,99811.72
2022-08-26T21:05:11.232Z,99806.81
2022-08-26T21:07:40.612Z,99808.78
2022-08-26T21:10:09.128Z,99818.69
2022-08-26T21:12:37.355Z,99806.41
2022-08-26T21:15:05.763Z,99814.50
2022-08-26T21:17:33.604Z,99806.88
2022-08-26T21:20:01.575Z,99814.91
2022-08-26T21:22:30.282Z,99812.63
2022-08-26T21:24:59.590Z,99829.53
2022-08-26T21:27:27.425Z,99827.81
2022-08-26T21:29:55.978Z,99837.84
2022-08-26T21:32:23.822Z,99835.47
2022-08-26T21:34:54.491Z,99840.13
2022-08-26T21:37:22.352Z,99844.84
2022-08-26T21:39:53.949Z,99837.97
2022-08-26T21:42:24.366Z,99841.78
2022-08-26T21:44:53.352Z,99839.97
2022-08-26T21:47:21.176Z,99843.69
2022-08-26T21:49:49.286Z,99840.44
2022-08-26T21:52:17.300Z,99845.78
2022-08-26T21:54:49.310Z,99845.88
2022-08-26T21:57:17.631Z,99847.88
2022-08-26T21:59:47.148Z,99842.72
2022-08-26T22:02:15.649Z,99838.44
2022-08-26T22:04:48.524Z,99848.44
2022-08-26T22:07:17.387Z,99837.09
2022-08-26T22:09:45.289Z,99836.47
2022-08-26T22:12:16.757Z,99834.00
2022-08-26T22:14:47.015Z,99837.53
2022-08-26T22:17:14.936Z,99829.97
2022-08-26T22:19:46.137Z,99833.34
2022-08-26T22:22:14.871Z,99839.72
2022-08-26T22:24:43.270Z,99841.91
2022-08-26T22:27:12.007Z,99840.47
2022-08-26T22:29:42.733Z,99847.53
2022-08-26T22:32:12.063Z,99796.63
2022-08-26T22:34:40.546Z,99844.09
2022-08-26T22:37:08.394Z,99845.97
2022-08-26T22:39:36.401Z,99847.88
2022-08-26T22:42:04.936Z,99848.16
2022-08-26T22:44:32.819Z,99853.69
2022-08-26T22:47:01.153Z,99851.22
2022-08-26T22:49:30.483Z,99857.66
2022-08-26T22:51:58.275Z,99855.38
2022-08-26T22:54:26.261Z,99851.16
2022-08-26T22:56:54.218Z,99855.03
2022-08-26T22:59:22.035Z,99850.75
2022-08-26T23:01:49.895Z,99848.19
2022-08-26T23:04:17.706Z,99852.84
2022-08-26T23:06:47.730Z,99859.97
2022-08-26T23:09:17.867Z,99848.25
2022-08-26T23:11:46.215Z,99851.97
2022-08-26T23:14:14.176Z,99848.50
2022-08-26T23:16:42.495Z,99852.97
2022-08-26T23:19:10.710Z,99857.47
2022-08-26T23:21:38.555Z,99854.94
2022-08-26T23:24:08.133Z,99853.22
2022-08-26T23:26:36.111Z,99850.75
2022-08-26T23:29:04.892Z,99850.81
2022-08-26T23:31:33.308Z,99844.72
2022-08-26T23:34:18.912Z,99849.03
2022-08-26T23:36:47.324Z,99841.97
2022-08-26T23:39:16.766Z,99847.50
2022-08-26T23:41:44.613Z,99843.00
2022-08-26T23:44:12.772Z,99838.88
2022-08-26T23:46:40.962Z,99844.13
2022-08-26T23:49:09.006Z,99838.13
2022-08-26T23:51:54.352Z,99835.59
2022-08-26T23:54:24.068Z,99834.75
2022-08-26T23:56:51.960Z,99828.66
2022-08-26T23:59:19.971Z,99831.31
